Time;durP1;ratioP1;P1;durP2;ratioP2;P2;SDS_P1;SDS_P2;PMS_P1;PMS_P2;Temp;Humidity;BMP_temperature;BMP_pressure;BME280_temperature;BME280_humidity;BME280_pressure;Samples;Min_cycle;Max_cycle;Signal;HPM_P1;HPM_P2
2020/12/20 00:01:48;;;;;;;12.15;10.60;;;;;;;2.40;69.43;95786.72;5028684;28;20076;-62
2020/12/20 00:04:14;;;;;;;11.25;10.15;;;;;;;2.55;69.83;95800.09;5030706;28;20029;-61
2020/12/20 00:06:42;;;;;;;15.50;10.85;;;;;;;2.20;69.86;95755.69;5044092;28;20044;-61
2020/12/20 00:09:15;;;;;;;11.27;10.15;;;;;;;2.21;69.97;95744.16;5028518;28;20030;-63
2020/12/20 00:11:42;;;;;;;11.52;10.32;;;;;;;2.08;69.81;95726.06;5028609;28;20049;-62
2020/12/20 00:16:51;;;;;;;11.82;10.63;;;;;;;2.04;70.06;95808.91;5029018;28;20122;-61
2020/12/20 00:19:17;;;;;;;13.48;10.73;;;;;;;1.24;73.02;95778.97;5029143;28;20718;-61
2020/12/20 00:21:42;;;;;;;11.70;10.50;;;;;;;2.03;71.91;95799.44;5028392;28;20048;-61
2020/12/20 00:24:11;;;;;;;11.10;10.00;;;;;;;2.30;72.02;95797.03;5028318;28;20553;-61
2020/12/20 00:26:36;;;;;;;11.93;9.55;;;;;;;2.20;71.04;95754.84;5028567;28;20132;-62
2020/12/20 00:29:03;;;;;;;11.93;10.00;;;;;;;2.38;70.81;95769.63;5043442;28;20501;-62
2020/12/20 00:31:29;;;;;;;12.70;11.40;;;;;;;2.60;70.46;95789.69;5028280;28;20033;-62
2020/12/20 00:33:54;;;;;;;14.52;10.75;;;;;;;2.36;69.99;95779.56;5030407;28;20079;-62
2020/12/20 00:36:20;;;;;;;24.05;12.05;;;;;;;2.38;70.05;95774.88;5028543;28;20043;-62
2020/12/20 00:38:45;;;;;;;17.35;11.02;;;;;;;2.46;69.42;95772.66;5029318;28;20506;-61
2020/12/20 00:41:10;;;;;;;11.50;10.30;;;;;;;2.58;69.88;95789.13;5032448;28;20041;-61
2020/12/20 00:43:36;;;;;;;13.93;10.43;;;;;;;2.65;69.67;95788.19;5032486;28;20657;-62
2020/12/20 00:46:02;;;;;;;11.55;10.43;;;;;;;2.48;69.52;95762.72;5034388;28;20026;-61
2020/12/20 00:48:27;;;;;;;12.18;10.88;;;;;;;2.72;69.30;95788.84;5032246;28;20037;-62
2020/12/20 00:50:52;;;;;;;11.57;10.38;;;;;;;2.74;68.89;95792.81;5032301;28;20037;-62
2020/12/20 00:53:18;;;;;;;12.02;10.63;;;;;;;2.72;68.95;95779.13;5032244;28;20041;-61
2020/12/20 00:55:43;;;;;;;11.07;9.93;;;;;;;2.76;69.06;95784.69;5032363;28;20487;-62
2020/12/20 00:58:08;;;;;;;11.95;10.75;;;;;;;2.68;68.95;95761.47;5034038;28;20053;-61
2020/12/20 01:00:33;;;;;;;14.10;11.43;;;;;;;2.82;68.62;95792.44;5031906;28;20120;-61
2020/12/20 01:02:59;;;;;;;11.15;10.05;;;;;;;2.63;68.75;95758.75;5031911;28;20033;-61
2020/12/20 01:05:24;;;;;;;11.30;10.10;;;;;;;2.63;68.88;95761.38;5032282;28;20113;-62
2020/12/20 01:07:49;;;;;;;33.83;13.55;;;;;;;2.44;68.75;95777.34;5032308;28;20038;-62
2020/12/20 01:10:14;;;;;;;21.35;14.20;;;;;;;1.45;69.57;95679.78;5033904;28;20593;-62
2020/12/20 01:12:40;;;;;;;12.00;10.68;;;;;;;2.34;70.62;95785.03;5031846;28;20045;-62
2020/12/20 01:15:05;;;;;;;13.68;11.55;;;;;;;2.22;70.06;95752.81;5032046;28;20060;-61
2020/12/20 01:17:30;;;;;;;13.48;11.90;;;;;;;2.07;69.80;95748.88;5032091;28;20042;-61
2020/12/20 01:19:56;;;;;;;12.40;10.63;;;;;;;2.40;70.00;95770.16;5031836;28;20111;-61
2020/12/20 01:22:21;;;;;;;11.80;10.60;;;;;;;2.48;70.13;95770.59;5031661;28;20037;-63
2020/12/20 01:24:46;;;;;;;14.38;11.07;;;;;;;2.51;69.34;95767.50;5033707;28;20129;-61
2020/12/20 01:27:11;;;;;;;12.18;10.88;;;;;;;2.69;69.26;95787.47;5031449;28;20557;-60
2020/12/20 01:29:37;;;;;;;13.60;12.20;;;;;;;2.68;68.96;95777.22;5046573;28;20037;-60
2020/12/20 01:32:02;;;;;;;41.72;12.55;;;;;;;2.75;68.95;95809.38;5031499;28;20479;-60
2020/12/20 01:34:27;;;;;;;34.33;13.80;;;;;;;2.64;69.66;95789.22;5031468;28;20079;-62
2020/12/20 01:36:55;;;;;;;14.52;10.70;;;;;;;2.74;69.59;95802.53;5033528;28;20203;-62
2020/12/20 01:39:21;;;;;;;99.63;16.90;;;;;;;2.69;69.09;95790.09;5031290;28;20037;-62
2020/12/20 01:41:46;;;;;;;16.27;13.10;;;;;;;2.35;69.60;95742.00;5030931;28;20064;-61
2020/12/20 01:44:11;;;;;;;13.27;11.23;;;;;;;2.53;69.17;95770.66;5030066;28;20045;-61
2020/12/20 01:46:42;;;;;;;14.38;12.20;;;;;;;2.80;69.43;95802.38;5031387;28;20026;-62
2020/12/20 01:49:10;;;;;;;16.65;12.23;;;;;;;2.32;70.18;95761.66;5031766;28;20083;-61
2020/12/20 01:51:35;;;;;;;81.60;16.88;;;;;;;2.32;70.37;95751.16;5030127;28;20368;-62
2020/12/20 01:54:01;;;;;;;25.73;12.90;;;;;;;2.62;69.69;95786.84;5031153;28;20047;-62
2020/12/20 01:56:26;;;;;;;13.48;11.20;;;;;;;2.66;69.97;95787.16;5031298;28;20080;-62
2020/12/20 01:58:52;;;;;;;18.35;13.57;;;;;;;2.42;69.91;95745.28;5030982;28;20394;-62
2020/12/20 02:01:17;;;;;;;18.83;14.13;;;;;;;2.34;69.66;95735.16;5032642;28;20466;-61
2020/12/20 02:03:43;;;;;;;15.85;11.57;;;;;;;2.56;69.81;95753.66;5031203;28;20041;-61
2020/12/20 02:06:12;;;;;;;14.05;11.88;;;;;;;2.66;70.01;95759.06;5029697;28;20040;-61
2020/12/20 02:08:38;;;;;;;15.95;12.57;;;;;;;2.65;69.35;95754.03;5030794;28;20034;-62
2020/12/20 02:11:10;;;;;;;12.07;10.88;;;;;;;2.88;69.83;95771.50;5030865;28;20041;-61
2020/12/20 02:13:40;;;;;;;11.50;10.27;;;;;;;2.80;69.59;95762.16;5030606;28;20029;-62
2020/12/20 02:16:06;;;;;;;11.88;10.63;;;;;;;2.88;69.39;95772.28;5031392;28;20467;-62
2020/12/20 02:18:31;;;;;;;11.82;10.63;;;;;;;2.86;69.05;95772.50;5030588;28;20044;-62
2020/12/20 02:20:57;;;;;;;12.63;10.50;;;;;;;2.69;69.22;95736.78;5030733;28;20045;-62
2020/12/20 02:23:22;;;;;;;11.65;10.45;;;;;;;2.88;68.67;95768.88;5029097;28;20053;-62
2020/12/20 02:25:51;;;;;;;11.57;10.38;;;;;;;2.67;68.85;95744.13;5030692;28;20172;-62
2020/12/20 02:28:17;;;;;;;12.43;11.13;;;;;;;2.69;68.42;95732.31;5030859;28;20029;-62
2020/12/20 02:30:42;;;;;;;14.60;11.38;;;;;;;2.69;68.94;95734.16;5030526;28;20079;-62
2020/12/20 02:33:08;;;;;;;11.18;10.07;;;;;;;2.88;68.52;95759.16;5030327;28;20041;-61
2020/12/20 02:35:33;;;;;;;11.25;10.00;;;;;;;2.79;68.89;95752.69;5030391;28;20045;-62
2020/12/20 02:37:58;;;;;;;11.77;10.68;;;;;;;1.83;68.59;95603.09;5030453;28;20038;-62
2020/12/20 02:40:23;;;;;;;11.35;10.25;;;;;;;2.67;68.71;95728.34;5028606;28;20025;-63
2020/12/20 02:42:49;;;;;;;16.60;10.77;;;;;;;2.66;68.34;95735.41;5032128;28;20402;-62
2020/12/20 02:45:14;;;;;;;11.68;9.68;;;;;;;2.50;68.71;95702.88;5030297;28;20060;-62
2020/12/20 02:47:39;;;;;;;18.17;11.80;;;;;;;2.61;68.92;95730.09;5030225;28;20041;-61
2020/12/20 02:50:05;;;;;;;10.90;9.73;;;;;;;2.74;68.35;95755.25;5029947;28;20042;-62
2020/12/20 02:52:30;;;;;;;12.43;10.30;;;;;;;2.60;68.71;95742.41;5029940;28;20036;-61
2020/12/20 02:54:55;;;;;;;12.40;11.10;;;;;;;2.58;69.01;95733.19;5031898;28;20422;-62
2020/12/20 02:57:20;;;;;;;14.77;11.75;;;;;;;2.52;68.75;95727.06;5029981;28;20041;-62
2020/12/20 02:59:46;;;;;;;11.98;10.68;;;;;;;2.50;68.46;95723.88;5028109;28;20501;-60
2020/12/20 03:02:11;;;;;;;13.48;11.35;;;;;;;2.54;69.03;95743.38;5028073;28;20056;-60
2020/12/20 03:04:36;;;;;;;12.13;10.90;;;;;;;2.51;69.48;95728.09;5029783;28;20529;-61
2020/12/20 03:07:01;;;;;;;12.63;11.00;;;;;;;2.44;68.95;95714.31;5031693;28;20032;-62
2020/12/20 03:09:27;;;;;;;12.80;10.90;;;;;;;2.73;69.29;95749.19;5029578;28;20517;-62
2020/12/20 03:11:52;;;;;;;13.63;10.98;;;;;;;2.67;68.52;95749.38;5044763;28;20041;-62
2020/12/20 03:14:17;;;;;;;11.75;10.20;;;;;;;2.66;68.00;95729.38;5029596;28;20041;-61
2020/12/20 03:16:43;;;;;;;11.50;10.40;;;;;;;2.79;68.09;95757.94;5029626;28;20051;-61
2020/12/20 03:19:08;;;;;;;12.73;11.43;;;;;;;2.42;68.21;95698.03;5031286;28;20033;-61
2020/12/20 03:21:33;;;;;;;11.68;10.48;;;;;;;2.80;68.19;95754.28;5029397;28;20077;-61
2020/12/20 03:24:00;;;;;;;12.38;11.07;;;;;;;2.38;68.51;95693.47;5029280;28;20045;-61
2020/12/20 03:26:26;;;;;;;11.90;10.70;;;;;;;2.90;68.20;95754.44;5029476;28;20041;-61
2020/12/20 03:28:52;;;;;;;11.40;10.30;;;;;;;2.73;67.88;95736.06;5029052;28;20490;-61
2020/12/20 03:31:17;;;;;;;12.25;11.05;;;;;;;2.69;67.85;95721.03;5031018;28;20032;-62
2020/12/20 03:33:42;;;;;;;11.88;10.68;;;;;;;2.83;67.80;95735.41;5044530;28;20046;-62
2020/12/20 03:36:08;;;;;;;11.23;10.13;;;;;;;2.83;67.88;95738.84;5029190;28;20483;-61
2020/12/20 03:38:33;;;;;;;11.70;10.50;;;;;;;2.38;67.76;95673.28;5028235;28;20107;-61
2020/12/20 03:40:58;;;;;;;11.32;10.23;;;;;;;2.51;67.69;95703.69;5028166;28;20044;-61
2020/12/20 03:43:23;;;;;;;12.02;10.48;;;;;;;2.70;67.62;95733.09;5028950;28;20490;-62
2020/12/20 03:45:49;;;;;;;11.95;10.75;;;;;;;2.45;67.71;95700.16;5031025;28;20064;-60
2020/12/20 03:48:14;;;;;;;12.77;11.45;;;;;;;2.65;67.96;95735.66;5028844;28;20034;-61
2020/12/20 03:50:39;;;;;;;11.65;10.35;;;;;;;2.17;68.19;95668.75;5029012;28;20054;-62
2020/12/20 03:53:05;;;;;;;11.35;9.82;;;;;;;2.68;68.51;95735.97;5028854;28;20422;-62
2020/12/20 03:55:30;;;;;;;11.45;10.35;;;;;;;2.55;68.14;95713.44;5029011;28;20033;-62
2020/12/20 03:57:55;;;;;;;11.27;9.73;;;;;;;2.53;67.57;95706.84;5030748;28;20200;-63
2020/12/20 04:00:21;;;;;;;12.98;11.55;;;;;;;2.64;68.05;95728.81;5028539;28;20499;-62
2020/12/20 04:02:47;;;;;;;16.13;12.45;;;;;;;2.74;68.08;95744.75;5028704;28;20037;-62
2020/12/20 04:05:12;;;;;;;13.25;11.50;;;;;;;2.54;67.55;95703.97;5028776;28;20522;-61
2020/12/20 04:07:38;;;;;;;13.57;12.25;;;;;;;2.32;67.36;95708.38;5028814;28;20064;-62
2020/12/20 04:10:03;;;;;;;12.82;11.18;;;;;;;2.23;67.85;95710.56;5030441;28;20021;-62
2020/12/20 04:12:28;;;;;;;11.63;10.43;;;;;;;2.17;68.55;95750.09;5028412;28;20037;-62
2020/12/20 04:14:54;;;;;;;14.45;11.23;;;;;;;1.94;68.76;95699.31;5028093;28;20080;-62
2020/12/20 04:17:19;;;;;;;13.05;11.05;;;;;;;1.83;69.40;95694.91;5028717;28;20041;-62
2020/12/20 04:19:44;;;;;;;12.27;11.02;;;;;;;1.97;69.13;95722.47;5028425;28;20042;-62
2020/12/20 04:22:09;;;;;;;13.23;11.07;;;;;;;2.18;69.18;95756.94;5030250;28;20036;-61
2020/12/20 04:24:35;;;;;;;12.00;10.48;;;;;;;2.18;69.12;95752.47;5028437;28;20081;-61
2020/12/20 04:27:00;;;;;;;11.52;10.32;;;;;;;2.10;69.24;95721.38;5028539;28;20040;-62
2020/12/20 04:29:25;;;;;;;14.55;11.23;;;;;;;1.91;69.36;95678.81;5028249;28;20042;-61
2020/12/20 04:31:51;;;;;;;12.73;10.88;;;;;;;2.20;69.41;95718.13;5028444;28;20124;-60
2020/12/20 04:34:16;;;;;;;12.60;11.07;;;;;;;2.16;68.61;95696.03;5030369;28;20080;-62
2020/12/20 04:36:41;;;;;;;13.23;11.45;;;;;;;2.43;68.68;95733.75;5043749;28;20073;-61
2020/12/20 04:39:07;;;;;;;12.32;11.00;;;;;;;2.09;68.09;95670.69;5028227;28;20037;-62
2020/12/20 04:41:32;;;;;;;12.88;11.07;;;;;;;2.60;68.43;95739.00;5027930;28;20049;-62
2020/12/20 04:43:58;;;;;;;14.60;11.73;;;;;;;2.30;68.05;95692.84;5028485;28;20072;-62
2020/12/20 04:46:26;;;;;;;13.80;12.25;;;;;;;2.51;68.40;95732.56;5028360;28;20030;-62
2020/12/20 04:48:52;;;;;;;14.55;11.70;;;;;;;2.37;68.14;95708.44;5030121;28;20025;-62
2020/12/20 04:51:18;;;;;;;14.93;12.25;;;;;;;2.61;68.27;95737.97;5028245;28;20065;-62
2020/12/20 04:53:45;;;;;;;13.70;11.98;;;;;;;2.58;68.29;95736.63;5028231;28;20380;-62
2020/12/20 04:56:12;;;;;;;13.65;12.23;;;;;;;2.59;67.87;95743.44;5031578;22;20046;-62
2020/12/20 04:58:38;;;;;;;15.23;12.02;;;;;;;2.09;67.83;95698.78;5027705;28;20463;-60
2020/12/20 05:01:05;;;;;;;12.82;11.30;;;;;;;2.36;68.27;95727.06;5028661;28;20127;-61
2020/12/20 05:03:31;;;;;;;13.60;12.10;;;;;;;2.22;68.18;95695.84;5026846;28;20030;-60
2020/12/20 05:05:56;;;;;;;13.77;11.95;;;;;;;2.37;67.94;95720.78;5008534;28;20038;-60
2020/12/20 05:08:23;;;;;;;14.32;12.25;;;;;;;2.39;68.59;95727.38;5008307;28;20038;-61
2020/12/20 05:10:50;;;;;;;17.65;13.88;;;;;;;2.42;68.63;95726.91;5008429;28;20038;-62
2020/12/20 05:13:15;;;;;;;14.68;12.55;;;;;;;2.04;68.27;95704.72;5008888;28;20026;-61
2020/12/20 05:15:41;;;;;;;14.07;12.43;;;;;;;2.30;68.68;95741.91;5008407;28;20038;-61
2020/12/20 05:18:14;;;;;;;14.20;11.93;;;;;;;1.92;68.69;95703.22;5007074;28;20042;-61
2020/12/20 05:20:45;;;;;;;13.93;11.75;;;;;;;2.03;68.91;95716.25;5008256;28;20407;-61
2020/12/20 05:23:13;;;;;;;12.88;11.45;;;;;;;2.28;68.95;95744.00;5008193;28;20046;-60
2020/12/20 05:25:39;;;;;;;13.27;11.65;;;;;;;2.25;69.16;95739.19;5009059;28;20385;-63
2020/12/20 05:28:07;;;;;;;12.75;11.40;;;;;;;2.40;69.18;95741.28;5013818;28;20030;-61
2020/12/20 05:30:33;;;;;;;14.10;12.30;;;;;;;2.23;68.73;95717.66;5011844;28;20046;-61
2020/12/20 05:32:58;;;;;;;14.63;12.13;;;;;;;2.46;68.78;95740.38;5011695;28;20042;-60
2020/12/20 05:35:23;;;;;;;12.98;11.57;;;;;;;2.27;68.62;95708.28;5011821;28;20050;-61
2020/12/20 05:37:49;;;;;;;14.70;12.70;;;;;;;2.08;67.87;95673.56;5012020;28;20037;-62
2020/12/20 05:40:32;;;;;;;14.68;12.27;;;;;;;2.27;68.24;95742.41;5013498;28;20492;-62
2020/12/20 05:43:02;;;;;;;13.30;11.40;;;;;;;2.27;68.76;95750.28;5012034;28;20042;-61
2020/12/20 05:45:31;;;;;;;14.02;12.27;;;;;;;2.27;68.84;95745.03;5011669;28;20046;-60
2020/12/20 05:47:57;;;;;;;14.77;11.85;;;;;;;2.28;68.70;95757.13;5011730;28;20487;-61
2020/12/20 05:50:27;;;;;;;13.55;12.15;;;;;;;2.08;68.55;95726.84;5011461;28;20041;-62
2020/12/20 05:53:01;;;;;;;13.55;11.38;;;;;;;1.72;68.82;95677.41;5011534;28;20095;-61
2020/12/20 05:55:40;;;;;;;12.70;11.40;;;;;;;1.95;69.12;95719.28;5011221;28;20100;-62
2020/12/20 05:58:13;;;;;;;15.10;11.45;;;;;;;2.03;68.93;95731.22;5012073;28;20026;-61
2020/12/20 06:00:45;;;;;;;13.35;12.05;;;;;;;1.88;68.78;95708.13;5011318;28;20046;-61
2020/12/20 06:03:11;;;;;;;12.20;10.73;;;;;;;1.88;68.69;95695.00;5011173;28;20034;-61
2020/12/20 06:05:42;;;;;;;12.60;11.30;;;;;;;2.13;68.57;95728.75;5009805;28;20049;-61
2020/12/20 06:08:13;;;;;;;11.57;10.38;;;;;;;2.15;68.41;95725.91;5011323;28;20123;-60
2020/12/20 06:10:44;;;;;;;11.65;10.45;;;;;;;2.33;68.79;95746.69;5011034;28;20038;-62
2020/12/20 06:13:12;;;;;;;12.85;11.48;;;;;;;2.25;68.17;95733.94;5012850;28;20037;-61
2020/12/20 06:15:40;;;;;;;13.02;11.18;;;;;;;2.30;68.24;95734.03;5011062;28;20049;-61
2020/12/20 06:18:15;;;;;;;12.80;11.48;;;;;;;2.35;68.05;95747.25;5010928;28;20034;-60
2020/12/20 06:21:03;;;;;;;14.13;11.02;;;;;;;2.26;68.17;95748.69;5011147;28;20148;-61
2020/12/20 06:23:31;;;;;;;14.70;12.27;;;;;;;2.27;68.78;95751.06;5010480;28;20042;-61
2020/12/20 06:25:57;;;;;;;13.52;11.75;;;;;;;1.51;68.84;95634.28;5011195;28;20046;-63
2020/12/20 06:28:26;;;;;;;13.15;11.75;;;;;;;2.15;68.86;95731.97;5010617;28;20026;-61
2020/12/20 06:30:53;;;;;;;13.00;11.70;;;;;;;2.26;68.96;95741.59;5012843;28;20061;-61
2020/12/20 06:33:40;;;;;;;13.80;12.38;;;;;;;2.20;68.68;95726.00;5010391;28;20577;-61
2020/12/20 06:36:11;;;;;;;14.27;12.20;;;;;;;2.18;68.78;95717.56;5008985;28;20034;-61
2020/12/20 06:38:36;;;;;;;12.75;11.45;;;;;;;2.15;68.53;95718.03;5010461;28;20034;-61
2020/12/20 06:41:03;;;;;;;12.88;11.55;;;;;;;1.90;68.48;95708.69;5010490;28;20065;-61
2020/12/20 06:43:34;;;;;;;12.43;11.23;;;;;;;2.00;68.86;95727.25;5008896;28;20034;-61
2020/12/20 06:46:01;;;;;;;11.60;10.40;;;;;;;1.97;69.41;95746.06;5012335;28;20041;-62
2020/12/20 06:48:34;;;;;;;13.10;11.70;;;;;;;1.85;69.03;95718.31;5009981;28;20026;-61
2020/12/20 06:51:01;;;;;;;11.90;10.70;;;;;;;2.00;69.34;95735.13;5009041;28;20029;-62
2020/12/20 06:53:45;;;;;;;11.90;10.68;;;;;;;1.98;69.26;95739.00;5009891;28;20487;-61
2020/12/20 06:56:15;;;;;;;13.07;11.38;;;;;;;1.92;69.00;95722.38;5010040;28;20120;-61
2020/12/20 06:58:40;;;;;;;15.93;13.00;;;;;;;1.94;69.19;95730.00;5008539;28;20054;-61
2020/12/20 07:01:06;;;;;;;12.88;10.77;;;;;;;1.93;69.34;95729.19;5010842;28;20100;-61
2020/12/20 07:03:38;;;;;;;13.68;10.93;;;;;;;1.89;69.14;95737.75;5008655;28;20483;-61
2020/12/20 07:06:12;;;;;;;13.32;10.88;;;;;;;1.59;68.82;95702.09;5010521;28;20093;-61
2020/12/20 07:08:38;;;;;;;32.70;12.18;;;;;;;1.80;69.31;95740.00;5009866;28;20069;-61
2020/12/20 07:11:06;;;;;;;12.52;11.23;;;;;;;1.78;69.09;95721.84;5010033;28;20196;-61
2020/12/20 07:13:37;;;;;;;12.65;10.55;;;;;;;1.51;69.87;95729.47;5009681;28;20060;-62
2020/12/20 07:16:14;;;;;;;13.27;11.37;;;;;;;1.81;70.25;95741.56;5011951;28;20026;-62
2020/12/20 07:19:02;;;;;;;13.85;11.60;;;;;;;1.94;69.85;95743.91;5008376;28;20037;-62
2020/12/20 07:21:55;;;;;;;13.48;11.15;;;;;;;2.04;69.51;95741.47;5009089;28;20128;-62
2020/12/20 07:24:30;;;;;;;;;;;;;;;2.16;69.28;95740.63;5011362;28;20077;-61
2020/12/20 07:27:01;;;;;;;11.85;10.25;;;;;;;2.15;68.75;95724.09;5010901;28;19918;-62
2020/12/20 07:29:28;;;;;;;13.50;10.98;;;;;;;2.27;68.69;95730.06;5010120;28;20026;-62
2020/12/20 07:31:56;;;;;;;12.85;11.48;;;;;;;2.37;68.21;95745.19;5010580;28;20113;-61
2020/12/20 07:34:26;;;;;;;12.45;10.00;;;;;;;2.43;68.23;95753.97;5009490;28;20056;-62
2020/12/20 07:36:55;;;;;;;12.25;10.50;;;;;;;2.27;67.62;95724.81;5012641;28;20097;-61
2020/12/20 07:39:20;;;;;;;11.98;10.70;;;;;;;2.24;67.36;95708.75;5010545;28;20034;-60
2020/12/20 07:41:45;;;;;;;12.18;10.80;;;;;;;2.58;67.69;95747.13;5010282;28;20052;-62
2020/12/20 07:44:12;;;;;;;11.73;9.88;;;;;;;2.56;67.26;95736.06;5010281;28;20038;-60
2020/12/20 07:46:38;;;;;;;10.90;9.80;;;;;;;2.76;66.76;95761.03;5009233;28;20108;-62
2020/12/20 07:49:09;;;;;;;11.70;10.30;;;;;;;2.85;67.02;95757.78;5012405;28;20025;-64
2020/12/20 07:51:35;;;;;;;11.45;10.35;;;;;;;2.93;66.86;95753.97;5010806;28;20045;-61
2020/12/20 07:54:05;;;;;;;10.70;9.60;;;;;;;2.60;65.75;95710.91;5009063;28;20449;-64
2020/12/20 07:56:37;;;;;;;10.80;9.70;;;;;;;2.90;65.83;95754.44;5010373;28;20046;-65
2020/12/20 07:59:08;;;;;;;10.18;9.18;;;;;;;2.94;65.65;95750.31;5009596;28;20042;-62
2020/12/20 08:01:36;;;;;;;10.77;9.68;;;;;;;2.99;65.53;95742.50;5008963;28;20320;-62
2020/12/20 08:04:15;;;;;;;11.48;10.27;;;;;;;3.08;65.01;95748.94;5012153;28;20061;-63
2020/12/20 08:06:48;;;;;;;10.18;9.10;;;;;;;2.86;64.90;95706.03;5010265;28;20038;-64
2020/12/20 08:09:16;;;;;;;11.35;9.73;;;;;;;3.08;64.66;95727.91;5008838;28;20382;-66
2020/12/20 08:11:43;;;;;;;10.55;9.50;;;;;;;3.23;64.26;95747.56;5008761;28;20116;-63
2020/12/20 08:14:14;;;;;;;10.38;9.27;;;;;;;3.16;63.95;95716.16;5009936;28;20042;-64
2020/12/20 08:16:41;;;;;;;11.00;9.90;;;;;;;3.25;64.01;95721.81;5007153;28;20075;-64
2020/12/20 08:19:08;;;;;;;11.60;10.23;;;;;;;3.45;63.63;95752.84;5011886;28;20470;-61
2020/12/20 08:22:02;;;;;;;11.80;10.48;;;;;;;3.31;63.63;95721.63;5010011;28;20052;-61
2020/12/20 08:24:36;;;;;;;9.90;8.95;;;;;;;3.28;63.71;95697.69;5009685;28;20056;-61
2020/12/20 08:27:21;;;;;;;11.20;9.98;;;;;;;3.57;64.03;95735.88;5010022;28;20085;-66
2020/12/20 08:29:49;;;;;;;12.52;11.38;;;;;;;3.74;63.06;95751.63;5009439;28;20105;-61
2020/12/20 08:32:17;;;;;;;11.85;10.65;;;;;;;3.62;62.94;95729.91;5009604;28;20065;-64
2020/12/20 08:34:43;;;;;;;11.20;9.98;;;;;;;3.17;63.61;95688.84;5008369;28;20030;-63
2020/12/20 08:37:11;;;;;;;14.65;11.50;;;;;;;3.35;63.97;95722.72;5011757;28;20053;-62
2020/12/20 08:39:36;;;;;;;12.75;11.55;;;;;;;3.21;63.72;95708.34;5009625;28;20045;-59
2020/12/20 08:42:08;;;;;;;13.15;11.85;;;;;;;2.98;64.03;95719.88;5009049;28;20034;-62
2020/12/20 08:44:33;;;;;;;11.88;10.73;;;;;;;3.12;64.22;95717.69;5009672;28;20042;-62
2020/12/20 08:47:07;;;;;;;11.68;10.57;;;;;;;3.34;64.02;95759.81;5009855;28;20086;-62
2020/12/20 08:49:33;;;;;;;11.38;10.18;;;;;;;3.42;64.09;95759.38;5009682;28;20053;-64
2020/12/20 08:52:07;;;;;;;11.82;10.65;;;;;;;3.29;64.16;95743.97;5011475;28;20068;-61
2020/12/20 08:54:33;;;;;;;10.77;9.68;;;;;;;3.44;64.67;95772.28;5006982;28;20061;-63
2020/12/20 08:57:07;;;;;;;10.05;9.15;;;;;;;3.32;64.34;95756.59;5009567;28;20123;-62
2020/12/20 08:59:40;;;;;;;10.75;9.65;;;;;;;3.46;64.46;95760.47;5009789;28;20041;-64
2020/12/20 09:02:08;;;;;;;11.15;9.95;;;;;;;3.63;64.08;95758.59;5012163;28;20133;-78
2020/12/20 09:04:35;;;;;;;11.13;10.02;;;;;;;3.65;63.88;95746.00;5013954;28;20026;-61
2020/12/20 09:07:07;;;;;;;11.20;10.00;;;;;;;3.79;63.66;95762.22;5015612;28;20018;-63
2020/12/20 09:09:33;;;;;;;11.60;10.17;;;;;;;3.81;63.65;95744.34;5013460;28;20073;-61
2020/12/20 09:12:19;;;;;;;12.25;10.95;;;;;;;3.53;63.12;95732.19;5013166;28;20781;-62
2020/12/20 09:15:02;;;;;;;12.38;11.25;;;;;;;3.22;63.86;95770.41;5013147;28;20049;-62
2020/12/20 09:17:32;;;;;;;11.07;9.95;;;;;;;2.50;65.35;95712.56;5013233;28;20037;-62
2020/12/20 09:19:59;;;;;;;11.68;10.48;;;;;;;3.29;65.00;95760.53;5013146;28;20046;-62
2020/12/20 09:22:44;;;;;;;11.30;10.25;;;;;;;3.78;64.39;95770.34;5011519;28;20026;-62
2020/12/20 09:25:12;;;;;;;11.32;10.23;;;;;;;3.95;63.81;95770.28;5014841;28;20445;-61
2020/12/20 09:27:38;;;;;;;12.02;10.88;;;;;;;3.91;63.14;95727.88;5013128;28;20072;-61
2020/12/20 09:30:06;;;;;;;11.65;10.55;;;;;;;4.08;62.56;95733.81;5012748;28;20423;-62
2020/12/20 09:32:38;;;;;;;11.50;10.40;;;;;;;4.47;61.91;95767.91;5011629;28;20034;-61
2020/12/20 09:35:08;;;;;;;11.73;10.63;;;;;;;4.54;61.76;95773.78;5012855;28;20034;-61
2020/12/20 09:37:38;;;;;;;12.02;10.82;;;;;;;4.69;61.22;95775.75;5012705;28;20018;-65
2020/12/20 09:40:06;;;;;;;11.57;10.57;;;;;;;4.57;61.20;95759.31;5013297;28;20075;-68
2020/12/20 09:42:39;;;;;;;11.45;10.32;;;;;;;4.48;60.74;95748.44;5011297;28;20053;-59
2020/12/20 09:45:05;;;;;;;10.65;9.65;;;;;;;4.60;60.65;95761.44;5012647;28;20038;-63
2020/12/20 09:47:35;;;;;;;11.52;10.32;;;;;;;4.64;60.55;95742.25;5012663;28;20080;-63
2020/12/20 09:50:00;;;;;;;10.43;9.43;;;;;;;4.79;60.63;95743.41;5011097;28;20037;-64
2020/12/20 09:52:26;;;;;;;11.85;10.73;;;;;;;4.70;59.80;95751.78;5011215;28;20025;-68
2020/12/20 09:54:51;;;;;;;10.93;9.82;;;;;;;5.13;60.07;95799.31;5013103;28;20116;-71
2020/12/20 09:57:16;;;;;;;11.27;10.18;;;;;;;5.18;59.77;95765.84;5012315;28;20375;-68
2020/12/20 09:59:41;;;;;;;10.80;9.70;;;;;;;5.10;59.39;95729.38;5012028;28;20072;-66
2020/12/20 10:02:07;;;;;;;10.30;9.40;;;;;;;5.51;58.50;95785.03;5010681;28;20034;-67
2020/12/20 10:04:34;;;;;;;11.32;10.32;;;;;;;5.42;57.86;95741.69;5012451;28;20022;-66
2020/12/20 10:07:00;;;;;;;11.65;10.55;;;;;;;5.57;57.81;95765.53;5013299;28;20052;-67
2020/12/20 10:09:25;;;;;;;10.02;9.07;;;;;;;5.31;58.14;95713.69;5012024;28;20038;-66
2020/12/20 10:11:50;;;;;;;12.75;11.43;;;;;;;5.41;57.61;95725.06;5010042;28;20034;-67
2020/12/20 10:14:15;;;;;;;10.95;9.95;;;;;;;5.37;58.23;95731.91;5012252;28;20037;-67
2020/12/20 10:16:41;;;;;;;12.20;11.10;;;;;;;5.34;58.15;95729.81;5010939;28;20112;-67
2020/12/20 10:19:06;;;;;;;11.65;10.65;;;;;;;5.25;57.86;95736.59;5013841;28;20478;-68
2020/12/20 10:21:31;;;;;;;11.13;10.15;;;;;;;5.53;57.82;95772.38;5010383;28;20050;-67
2020/12/20 10:23:57;;;;;;;10.70;9.70;;;;;;;4.99;58.12;95692.69;5011798;28;20095;-66
2020/12/20 10:26:22;;;;;;;11.43;10.23;;;;;;;5.02;58.19;95695.59;5012257;28;20037;-66
2020/12/20 10:28:48;;;;;;;11.20;9.73;;;;;;;4.92;58.04;95685.78;5011328;28;20030;-66
2020/12/20 10:31:18;;;;;;;12.30;11.07;;;;;;;5.41;58.09;95764.66;5013724;28;20479;-68
2020/12/20 10:33:44;;;;;;;11.95;10.75;;;;;;;5.54;58.14;95789.00;5011894;28;20030;-67
2020/12/20 10:36:09;;;;;;;13.95;11.77;;;;;;;4.49;58.87;95670.19;5010546;28;20092;-67
2020/12/20 10:38:35;;;;;;;13.43;12.10;;;;;;;4.85;58.68;95723.94;5011540;28;20042;-67
2020/12/20 10:41:00;;;;;;;12.10;11.00;;;;;;;4.32;59.07;95659.78;5011235;28;20050;-66
2020/12/20 10:43:25;;;;;;;13.55;12.25;;;;;;;4.92;58.81;95732.44;5009788;28;20021;-67
2020/12/20 10:45:52;;;;;;;12.52;11.30;;;;;;;4.69;59.65;95692.22;5013292;28;20049;-67
2020/12/20 10:48:17;;;;;;;12.07;10.93;;;;;;;5.20;59.30;95762.94;5011088;28;20108;-67
2020/12/20 10:50:42;;;;;;;12.00;10.77;;;;;;;5.21;59.32;95767.94;5011482;28;20495;-67
2020/12/20 10:53:08;;;;;;;12.13;10.98;;;;;;;4.99;59.26;95725.09;5010984;28;20194;-66
2020/12/20 10:55:33;;;;;;;12.55;11.35;;;;;;;4.95;59.43;95711.63;5011297;28;20468;-61
2020/12/20 10:57:58;;;;;;;12.55;11.35;;;;;;;5.26;58.92;95751.38;5021656;22;20072;-72
2020/12/20 11:00:24;;;;;;;12.13;10.95;;;;;;;5.48;58.80;95754.69;5005259;28;20045;-74
2020/12/20 11:02:49;;;;;;;11.88;10.18;;;;;;;5.75;58.16;95756.38;5010484;28;20038;-72
2020/12/20 11:05:16;;;;;;;11.52;9.95;;;;;;;5.54;57.99;95760.78;5009524;28;20460;-71
2020/12/20 11:07:41;;;;;;;10.85;9.75;;;;;;;5.73;58.50;95759.28;5009781;28;20069;-74
2020/12/20 11:10:06;;;;;;;11.30;10.20;;;;;;;5.85;57.37;95755.63;5012944;28;20056;-72
2020/12/20 11:12:31;;;;;;;10.55;9.57;;;;;;;5.88;57.46;95755.09;5025912;28;20111;-71
2020/12/20 11:14:57;;;;;;;11.50;10.00;;;;;;;6.03;57.70;95776.31;5011928;28;20501;-75
2020/12/20 11:17:22;;;;;;;12.05;10.85;;;;;;;6.17;57.40;95761.56;5010282;28;20030;-80
2020/12/20 11:19:47;;;;;;;11.38;10.27;;;;;;;6.18;57.22;95744.66;5011920;28;20042;-81
2020/12/20 11:22:12;;;;;;;11.05;10.05;;;;;;;6.43;56.48;95756.34;5015069;28;20030;-73
2020/12/20 11:24:38;;;;;;;10.75;9.65;;;;;;;6.48;55.93;95740.47;5011512;28;20618;-80
2020/12/20 11:27:03;;;;;;;11.35;9.85;;;;;;;6.53;55.93;95753.69;5011861;28;20496;-81
2020/12/20 11:29:28;;;;;;;11.98;10.82;;;;;;;6.51;55.19;95739.97;5011116;28;20125;-79
2020/12/20 11:31:54;;;;;;;11.05;9.93;;;;;;;6.38;56.39;95728.06;5009757;28;20034;-74